sensor_id;sensor_type;location;lat;lon;timestamp;temperature;humidity
4090;DHT22;2059;48.538;12.146;2023-12-07T00:04:02;3.80;99.90
4090;DHT22;2059;48.538;12.146;2023-12-07T00:09:05;3.90;99.90
4090;DHT22;2059;48.538;12.146;2023-12-07T00:14:07;3.70;99.90
4090;DHT22;2059;48.538;12.146;2023-12-07T00:19:09;3.60;99.90
4090;DHT22;2059;48.538;12.146;2023-12-07T00:24:12;3.60;99.90
4090;DHT22;2059;48.538;12.146;2023-12-07T00:29:14;3.60;99.90
4090;DHT22;2059;48.538;12.146;2023-12-07T00:34:15;3.30;99.90
4090;DHT22;2059;48.538;12.146;2023-12-07T00:39:20;3.30;99.90
4090;DHT22;2059;48.538;12.146;2023-12-07T00:44:23;3.40;99.90
4090;DHT22;2059;48.538;12.146;2023-12-07T00:49:25;3.40;99.90
4090;DHT22;2059;48.538;12.146;2023-12-07T00:54:28;3.40;99.90
4090;DHT22;2059;48.538;12.146;2023-12-07T00:59:29;3.30;99.90
4090;DHT22;2059;48.538;12.146;2023-12-07T01:04:34;3.00;99.90
4090;DHT22;2059;48.538;12.146;2023-12-07T01:09:37;3.10;99.90
4090;DHT22;2059;48.538;12.146;2023-12-07T01:14:39;3.20;99.90
4090;DHT22;2059;48.538;12.146;2023-12-07T01:19:41;3.10;99.90
4090;DHT22;2059;48.538;12.146;2023-12-07T01:24:44;2.80;99.90
4090;DHT22;2059;48.538;12.146;2023-12-07T01:29:46;2.70;99.90
4090;DHT22;2059;48.538;12.146;2023-12-07T01:34:48;3.00;99.90
4090;DHT22;2059;48.538;12.146;2023-12-07T01:39:51;2.90;99.90
4090;DHT22;2059;48.538;12.146;2023-12-07T01:44:53;3.00;99.90
4090;DHT22;2059;48.538;12.146;2023-12-07T01:49:55;3.10;99.90
4090;DHT22;2059;48.538;12.146;2023-12-07T01:54:58;3.00;99.90
4090;DHT22;2059;48.538;12.146;2023-12-07T02:00:00;3.40;99.90
4090;DHT22;2059;48.538;12.146;2023-12-07T02:05:03;3.30;99.90
4090;DHT22;2059;48.538;12.146;2023-12-07T02:10:08;3.30;99.90
4090;DHT22;2059;48.538;12.146;2023-12-07T02:15:10;3.30;99.90
4090;DHT22;2059;48.538;12.146;2023-12-07T02:20:18;2.90;99.90
4090;DHT22;2059;48.538;12.146;2023-12-07T02:25:29;2.90;99.90
4090;DHT22;2059;48.538;12.146;2023-12-07T02:30:32;2.60;99.90
4090;DHT22;2059;48.538;12.146;2023-12-07T02:35:36;2.60;99.90
4090;DHT22;2059;48.538;12.146;2023-12-07T02:40:38;2.70;99.90
4090;DHT22;2059;48.538;12.146;2023-12-07T02:45:43;2.90;99.90
4090;DHT22;2059;48.538;12.146;2023-12-07T02:50:44;2.80;99.90
4090;DHT22;2059;48.538;12.146;2023-12-07T02:55:46;2.70;99.90
4090;DHT22;2059;48.538;12.146;2023-12-07T03:00:49;2.90;99.90
4090;DHT22;2059;48.538;12.146;2023-12-07T03:05:51;2.90;99.90
4090;DHT22;2059;48.538;12.146;2023-12-07T03:10:53;2.90;99.90
4090;DHT22;2059;48.538;12.146;2023-12-07T03:15:56;2.50;99.90
4090;DHT22;2059;48.538;12.146;2023-12-07T03:20:57;2.70;99.90
4090;DHT22;2059;48.538;12.146;2023-12-07T03:25:59;2.90;99.90
4090;DHT22;2059;48.538;12.146;2023-12-07T03:31:02;2.90;99.90
4090;DHT22;2059;48.538;12.146;2023-12-07T03:36:04;3.00;99.90
4090;DHT22;2059;48.538;12.146;2023-12-07T03:41:06;2.80;99.90
4090;DHT22;2059;48.538;12.146;2023-12-07T03:46:10;2.90;99.90
4090;DHT22;2059;48.538;12.146;2023-12-07T03:51:13;3.10;99.90
4090;DHT22;2059;48.538;12.146;2023-12-07T03:56:23;3.10;99.90
4090;DHT22;2059;48.538;12.146;2023-12-07T04:01:27;2.80;99.90
4090;DHT22;2059;48.538;12.146;2023-12-07T04:06:29;2.90;99.90
4090;DHT22;2059;48.538;12.146;2023-12-07T04:11:31;3.10;99.90
4090;DHT22;2059;48.538;12.146;2023-12-07T04:16:34;2.70;99.90
4090;DHT22;2059;48.538;12.146;2023-12-07T04:21:36;2.90;99.90
4090;DHT22;2059;48.538;12.146;2023-12-07T04:26:38;2.90;99.90
4090;DHT22;2059;48.538;12.146;2023-12-07T04:31:41;3.00;99.90
4090;DHT22;2059;48.538;12.146;2023-12-07T04:36:43;3.10;99.90
4090;DHT22;2059;48.538;12.146;2023-12-07T04:41:45;3.10;99.90
4090;DHT22;2059;48.538;12.146;2023-12-07T04:46:48;3.00;99.90
4090;DHT22;2059;48.538;12.146;2023-12-07T04:51:50;3.20;99.90
4090;DHT22;2059;48.538;12.146;2023-12-07T04:56:52;3.30;99.90
4090;DHT22;2059;48.538;12.146;2023-12-07T05:01:55;3.00;99.90
4090;DHT22;2059;48.538;12.146;2023-12-07T05:06:57;3.20;99.90
4090;DHT22;2059;48.538;12.146;2023-12-07T05:11:59;3.20;99.90
4090;DHT22;2059;48.538;12.146;2023-12-07T05:17:02;2.80;99.90
4090;DHT22;2059;48.538;12.146;2023-12-07T05:22:05;2.90;99.90
4090;DHT22;2059;48.538;12.146;2023-12-07T05:27:07;2.90;99.90
4090;DHT22;2059;48.538;12.146;2023-12-07T05:32:10;2.80;99.90
4090;DHT22;2059;48.538;12.146;2023-12-07T05:37:12;3.00;99.90
4090;DHT22;2059;48.538;12.146;2023-12-07T05:42:14;3.10;99.90
4090;DHT22;2059;48.538;12.146;2023-12-07T05:47:17;2.90;99.90
4090;DHT22;2059;48.538;12.146;2023-12-07T05:52:19;3.10;99.90
4090;DHT22;2059;48.538;12.146;2023-12-07T05:57:21;3.40;99.90
4090;DHT22;2059;48.538;12.146;2023-12-07T06:02:25;3.20;99.90
4090;DHT22;2059;48.538;12.146;2023-12-07T06:07:26;3.40;99.90
4090;DHT22;2059;48.538;12.146;2023-12-07T06:12:28;3.30;99.90
4090;DHT22;2059;48.538;12.146;2023-12-07T06:17:31;3.10;99.90
4090;DHT22;2059;48.538;12.146;2023-12-07T06:22:34;2.90;99.90
4090;DHT22;2059;48.538;12.146;2023-12-07T06:27:36;2.90;99.90
4090;DHT22;2059;48.538;12.146;2023-12-07T06:32:39;2.80;99.90
4090;DHT22;2059;48.538;12.146;2023-12-07T06:37:40;2.70;99.90
4090;DHT22;2059;48.538;12.146;2023-12-07T06:42:42;2.90;99.90
4090;DHT22;2059;48.538;12.146;2023-12-07T06:47:45;2.70;99.90
4090;DHT22;2059;48.538;12.146;2023-12-07T06:52:47;2.50;99.90
4090;DHT22;2059;48.538;12.146;2023-12-07T06:57:49;2.60;99.90
4090;DHT22;2059;48.538;12.146;2023-12-07T07:02:52;2.50;99.90
4090;DHT22;2059;48.538;12.146;2023-12-07T07:07:53;2.40;99.90
4090;DHT22;2059;48.538;12.146;2023-12-07T07:12:59;2.60;99.90
4090;DHT22;2059;48.538;12.146;2023-12-07T07:18:03;2.60;99.90
4090;DHT22;2059;48.538;12.146;2023-12-07T07:23:05;2.50;99.90
4090;DHT22;2059;48.538;12.146;2023-12-07T07:28:08;2.80;99.90
4090;DHT22;2059;48.538;12.146;2023-12-07T07:33:11;3.00;99.90
4090;DHT22;2059;48.538;12.146;2023-12-07T07:38:13;2.80;99.90
4090;DHT22;2059;48.538;12.146;2023-12-07T07:43:15;3.10;99.90
4090;DHT22;2059;48.538;12.146;2023-12-07T07:48:18;2.70;99.90
4090;DHT22;2059;48.538;12.146;2023-12-07T07:53:20;3.10;99.90
4090;DHT22;2059;48.538;12.146;2023-12-07T07:58:21;3.30;99.90
4090;DHT22;2059;48.538;12.146;2023-12-07T08:03:24;3.60;99.90
4090;DHT22;2059;48.538;12.146;2023-12-07T08:08:26;3.60;99.90
4090;DHT22;2059;48.538;12.146;2023-12-07T08:13:28;3.50;99.90
4090;DHT22;2059;48.538;12.146;2023-12-07T08:18:31;3.10;99.90
4090;DHT22;2059;48.538;12.146;2023-12-07T08:23:33;3.50;99.90
4090;DHT22;2059;48.538;12.146;2023-12-07T08:28:35;3.30;99.90
4090;DHT22;2059;48.538;12.146;2023-12-07T08:33:38;3.70;99.90
4090;DHT22;2059;48.538;12.146;2023-12-07T08:38:41;4.00;99.90
4090;DHT22;2059;48.538;12.146;2023-12-07T08:43:42;4.10;99.90
4090;DHT22;2059;48.538;12.146;2023-12-07T08:48:45;3.90;99.90
4090;DHT22;2059;48.538;12.146;2023-12-07T08:53:47;4.30;99.90
4090;DHT22;2059;48.538;12.146;2023-12-07T08:58:50;4.50;99.50
4090;DHT22;2059;48.538;12.146;2023-12-07T09:03:53;4.40;99.40
4090;DHT22;2059;48.538;12.146;2023-12-07T09:08:55;4.60;99.20
4090;DHT22;2059;48.538;12.146;2023-12-07T09:13:57;4.40;99.60
4090;DHT22;2059;48.538;12.146;2023-12-07T09:19:00;4.50;99.40
4090;DHT22;2059;48.538;12.146;2023-12-07T09:24:02;4.90;99.00
4090;DHT22;2059;48.538;12.146;2023-12-07T09:29:06;5.00;98.80
4090;DHT22;2059;48.538;12.146;2023-12-07T09:34:10;5.20;98.60
4090;DHT22;2059;48.538;12.146;2023-12-07T09:39:17;5.50;98.40
4090;DHT22;2059;48.538;12.146;2023-12-07T09:44:19;5.60;98.00
4090;DHT22;2059;48.538;12.146;2023-12-07T09:49:22;5.50;97.20
4090;DHT22;2059;48.538;12.146;2023-12-07T09:54:25;5.70;97.70
4090;DHT22;2059;48.538;12.146;2023-12-07T09:59:28;5.80;96.90
4090;DHT22;2059;48.538;12.146;2023-12-07T10:04:31;5.90;97.10
4090;DHT22;2059;48.538;12.146;2023-12-07T10:09:32;5.80;97.40
4090;DHT22;2059;48.538;12.146;2023-12-07T10:14:34;6.00;96.20
4090;DHT22;2059;48.538;12.146;2023-12-07T10:19:37;5.70;97.10
4090;DHT22;2059;48.538;12.146;2023-12-07T10:24:39;6.10;96.80
4090;DHT22;2059;48.538;12.146;2023-12-07T10:29:41;6.40;96.20
4090;DHT22;2059;48.538;12.146;2023-12-07T10:34:46;6.50;95.60
4090;DHT22;2059;48.538;12.146;2023-12-07T10:39:48;6.90;95.50
4090;DHT22;2059;48.538;12.146;2023-12-07T10:44:50;7.10;94.90
4090;DHT22;2059;48.538;12.146;2023-12-07T10:49:57;7.40;94.60
4090;DHT22;2059;48.538;12.146;2023-12-07T10:55:03;8.50;93.30
4090;DHT22;2059;48.538;12.146;2023-12-07T11:00:09;9.40;91.50
4090;DHT22;2059;48.538;12.146;2023-12-07T11:05:12;9.50;90.70
4090;DHT22;2059;48.538;12.146;2023-12-07T11:10:20;9.30;90.20
4090;DHT22;2059;48.538;12.146;2023-12-07T11:15:23;9.30;90.00
4090;DHT22;2059;48.538;12.146;2023-12-07T11:20:39;8.90;90.60
4090;DHT22;2059;48.538;12.146;2023-12-07T11:25:43;9.10;90.50
4090;DHT22;2059;48.538;12.146;2023-12-07T11:30:45;9.20;90.80
4090;DHT22;2059;48.538;12.146;2023-12-07T11:36:06;9.10;90.30
4090;DHT22;2059;48.538;12.146;2023-12-07T11:41:10;9.00;90.00
4090;DHT22;2059;48.538;12.146;2023-12-07T11:46:12;9.00;90.10
4090;DHT22;2059;48.538;12.146;2023-12-07T11:51:17;9.10;89.50
4090;DHT22;2059;48.538;12.146;2023-12-07T11:56:19;8.80;90.50
4090;DHT22;2059;48.538;12.146;2023-12-07T12:01:24;8.70;90.50
4090;DHT22;2059;48.538;12.146;2023-12-07T12:06:29;9.00;90.80
4090;DHT22;2059;48.538;12.146;2023-12-07T12:11:31;8.90;90.80
4090;DHT22;2059;48.538;12.146;2023-12-07T12:16:32;8.60;90.20
4090;DHT22;2059;48.538;12.146;2023-12-07T12:21:36;8.90;90.60
4090;DHT22;2059;48.538;12.146;2023-12-07T12:26:41;9.20;90.50
4090;DHT22;2059;48.538;12.146;2023-12-07T12:31:43;9.40;90.20
4090;DHT22;2059;48.538;12.146;2023-12-07T12:36:46;8.90;88.50
4090;DHT22;2059;48.538;12.146;2023-12-07T12:41:48;9.10;90.00
4090;DHT22;2059;48.538;12.146;2023-12-07T12:46:55;9.30;89.00
4090;DHT22;2059;48.538;12.146;2023-12-07T12:51:58;9.20;88.30
4090;DHT22;2059;48.538;12.146;2023-12-07T12:57:00;9.10;88.80
4090;DHT22;2059;48.538;12.146;2023-12-07T13:02:02;8.80;89.10
4090;DHT22;2059;48.538;12.146;2023-12-07T13:07:06;8.80;88.80
4090;DHT22;2059;48.538;12.146;2023-12-07T13:12:08;8.70;88.10
4090;DHT22;2059;48.538;12.146;2023-12-07T13:17:09;8.20;89.20
4090;DHT22;2059;48.538;12.146;2023-12-07T13:22:13;8.20;90.00
4090;DHT22;2059;48.538;12.146;2023-12-07T13:27:14;8.40;90.00
4090;DHT22;2059;48.538;12.146;2023-12-07T13:32:17;8.10;90.60
4090;DHT22;2059;48.538;12.146;2023-12-07T13:37:20;7.90;91.40
4090;DHT22;2059;48.538;12.146;2023-12-07T13:42:21;7.50;92.40
4090;DHT22;2059;48.538;12.146;2023-12-07T13:47:27;7.30;92.80
4090;DHT22;2059;48.538;12.146;2023-12-07T13:52:33;7.00;93.10
4090;DHT22;2059;48.538;12.146;2023-12-07T13:57:35;6.80;93.60
4090;DHT22;2059;48.538;12.146;2023-12-07T14:02:36;6.60;93.60
4090;DHT22;2059;48.538;12.146;2023-12-07T14:07:39;6.70;93.90
4090;DHT22;2059;48.538;12.146;2023-12-07T14:12:41;6.40;94.30
4090;DHT22;2059;48.538;12.146;2023-12-07T14:17:43;6.30;94.30
4090;DHT22;2059;48.538;12.146;2023-12-07T14:22:46;6.10;94.60
4090;DHT22;2059;48.538;12.146;2023-12-07T14:27:49;6.10;94.80
4090;DHT22;2059;48.538;12.146;2023-12-07T14:32:51;6.00;94.90
4090;DHT22;2059;48.538;12.146;2023-12-07T14:37:54;5.90;94.80
4090;DHT22;2059;48.538;12.146;2023-12-07T14:42:56;5.70;94.60
4090;DHT22;2059;48.538;12.146;2023-12-07T14:47:57;5.40;94.70
4090;DHT22;2059;48.538;12.146;2023-12-07T14:53:00;5.20;94.80
4090;DHT22;2059;48.538;12.146;2023-12-07T14:58:02;5.10;94.80
4090;DHT22;2059;48.538;12.146;2023-12-07T15:03:04;5.10;95.40
4090;DHT22;2059;48.538;12.146;2023-12-07T15:08:07;4.90;95.80
4090;DHT22;2059;48.538;12.146;2023-12-07T15:13:09;4.70;96.60
4090;DHT22;2059;48.538;12.146;2023-12-07T15:18:11;4.40;97.50
4090;DHT22;2059;48.538;12.146;2023-12-07T15:23:14;4.20;97.90
4090;DHT22;2059;48.538;12.146;2023-12-07T15:28:16;4.10;98.10
4090;DHT22;2059;48.538;12.146;2023-12-07T15:33:18;4.20;98.10
4090;DHT22;2059;48.538;12.146;2023-12-07T15:38:21;4.20;98.20
4090;DHT22;2059;48.538;12.146;2023-12-07T15:43:23;3.90;98.40
4090;DHT22;2059;48.538;12.146;2023-12-07T15:48:25;4.00;98.80
4090;DHT22;2059;48.538;12.146;2023-12-07T15:53:28;4.00;98.80
4090;DHT22;2059;48.538;12.146;2023-12-07T15:58:30;3.80;98.90
4090;DHT22;2059;48.538;12.146;2023-12-07T16:03:32;3.60;99.20
4090;DHT22;2059;48.538;12.146;2023-12-07T16:08:37;3.70;99.40
4090;DHT22;2059;48.538;12.146;2023-12-07T16:13:39;3.60;99.20
4090;DHT22;2059;48.538;12.146;2023-12-07T16:18:41;3.60;99.40
4090;DHT22;2059;48.538;12.146;2023-12-07T16:23:44;3.60;99.50
4090;DHT22;2059;48.538;12.146;2023-12-07T16:28:46;3.40;99.80
4090;DHT22;2059;48.538;12.146;2023-12-07T16:33:48;3.00;99.90
4090;DHT22;2059;48.538;12.146;2023-12-07T16:38:51;3.00;99.90
4090;DHT22;2059;48.538;12.146;2023-12-07T16:43:53;3.10;99.90
4090;DHT22;2059;48.538;12.146;2023-12-07T16:48:54;2.80;99.90
4090;DHT22;2059;48.538;12.146;2023-12-07T16:53:57;2.80;99.90
4090;DHT22;2059;48.538;12.146;2023-12-07T16:59:00;2.60;99.90
4090;DHT22;2059;48.538;12.146;2023-12-07T17:04:02;2.40;99.90
4090;DHT22;2059;48.538;12.146;2023-12-07T17:09:05;2.50;99.90
4090;DHT22;2059;48.538;12.146;2023-12-07T17:14:08;2.40;99.90
4090;DHT22;2059;48.538;12.146;2023-12-07T17:19:09;2.30;99.90
4090;DHT22;2059;48.538;12.146;2023-12-07T17:24:12;2.20;99.90
4090;DHT22;2059;48.538;12.146;2023-12-07T17:29:15;2.00;99.90
4090;DHT22;2059;48.538;12.146;2023-12-07T17:34:16;2.00;99.90
4090;DHT22;2059;48.538;12.146;2023-12-07T17:39:19;2.20;99.90
4090;DHT22;2059;48.538;12.146;2023-12-07T17:44:21;2.10;99.90
4090;DHT22;2059;48.538;12.146;2023-12-07T17:49:23;2.10;99.90
4090;DHT22;2059;48.538;12.146;2023-12-07T17:54:26;2.00;99.90
4090;DHT22;2059;48.538;12.146;2023-12-07T17:59:28;1.80;99.90
4090;DHT22;2059;48.538;12.146;2023-12-07T18:04:32;1.80;99.90
4090;DHT22;2059;48.538;12.146;2023-12-07T18:09:35;1.70;99.90
4090;DHT22;2059;48.538;12.146;2023-12-07T18:14:37;1.70;99.90
4090;DHT22;2059;48.538;12.146;2023-12-07T18:19:39;1.70;99.90
4090;DHT22;2059;48.538;12.146;2023-12-07T18:24:42;1.50;99.90
4090;DHT22;2059;48.538;12.146;2023-12-07T18:29:44;1.70;99.90
4090;DHT22;2059;48.538;12.146;2023-12-07T18:34:46;1.50;99.90
4090;DHT22;2059;48.538;12.146;2023-12-07T18:39:49;1.50;99.90
4090;DHT22;2059;48.538;12.146;2023-12-07T18:44:50;1.40;99.90
4090;DHT22;2059;48.538;12.146;2023-12-07T18:49:52;1.20;99.90
4090;DHT22;2059;48.538;12.146;2023-12-07T18:54:55;1.20;99.90
4090;DHT22;2059;48.538;12.146;2023-12-07T18:59:57;1.10;99.90
4090;DHT22;2059;48.538;12.146;2023-12-07T19:04:59;0.80;99.90
4090;DHT22;2059;48.538;12.146;2023-12-07T19:10:02;1.00;99.90
4090;DHT22;2059;48.538;12.146;2023-12-07T19:15:05;0.80;99.90
4090;DHT22;2059;48.538;12.146;2023-12-07T19:20:08;0.80;99.90
4090;DHT22;2059;48.538;12.146;2023-12-07T19:25:11;0.90;99.90
4090;DHT22;2059;48.538;12.146;2023-12-07T19:30:13;1.00;99.90
4090;DHT22;2059;48.538;12.146;2023-12-07T19:35:15;1.00;99.90
4090;DHT22;2059;48.538;12.146;2023-12-07T19:40:18;0.90;99.90
4090;DHT22;2059;48.538;12.146;2023-12-07T19:45:20;0.80;99.90
4090;DHT22;2059;48.538;12.146;2023-12-07T19:50:23;1.00;99.90
4090;DHT22;2059;48.538;12.146;2023-12-07T19:55:29;1.10;99.90
4090;DHT22;2059;48.538;12.146;2023-12-07T20:00:31;0.70;99.90
4090;DHT22;2059;48.538;12.146;2023-12-07T20:05:32;0.40;99.90
4090;DHT22;2059;48.538;12.146;2023-12-07T20:10:36;0.50;99.90
4090;DHT22;2059;48.538;12.146;2023-12-07T20:15:39;0.60;99.90
4090;DHT22;2059;48.538;12.146;2023-12-07T20:20:42;0.70;99.90
4090;DHT22;2059;48.538;12.146;2023-12-07T20:25:46;0.50;99.90
4090;DHT22;2059;48.538;12.146;2023-12-07T20:30:48;0.20;99.90
4090;DHT22;2059;48.538;12.146;2023-12-07T20:35:50;0.00;99.90
4090;DHT22;2059;48.538;12.146;2023-12-07T20:40:53;-0.10;99.90
4090;DHT22;2059;48.538;12.146;2023-12-07T20:45:55;0.00;99.90
4090;DHT22;2059;48.538;12.146;2023-12-07T20:50:58;-0.30;99.90
4090;DHT22;2059;48.538;12.146;2023-12-07T20:56:02;-0.50;99.90
4090;DHT22;2059;48.538;12.146;2023-12-07T21:01:04;-0.30;99.90
4090;DHT22;2059;48.538;12.146;2023-12-07T21:06:07;0.00;99.90
4090;DHT22;2059;48.538;12.146;2023-12-07T21:11:11;-0.30;99.90
4090;DHT22;2059;48.538;12.146;2023-12-07T21:16:13;-0.40;99.90
4090;DHT22;2059;48.538;12.146;2023-12-07T21:21:15;-0.30;99.90
4090;DHT22;2059;48.538;12.146;2023-12-07T21:26:18;-0.40;99.90
4090;DHT22;2059;48.538;12.146;2023-12-07T21:31:20;-0.50;99.90
4090;DHT22;2059;48.538;12.146;2023-12-07T21:36:22;-0.40;99.90
4090;DHT22;2059;48.538;12.146;2023-12-07T21:41:25;-0.50;99.90
4090;DHT22;2059;48.538;12.146;2023-12-07T21:52:19;-0.90;99.90
4090;DHT22;2059;48.538;12.146;2023-12-07T21:57:23;-1.10;99.90
4090;DHT22;2059;48.538;12.146;2023-12-07T22:02:25;-1.20;99.90
4090;DHT22;2059;48.538;12.146;2023-12-07T22:07:26;-0.90;99.90
4090;DHT22;2059;48.538;12.146;2023-12-07T22:12:30;-0.80;99.90
4090;DHT22;2059;48.538;12.146;2023-12-07T22:17:31;-1.30;99.90
4090;DHT22;2059;48.538;12.146;2023-12-07T22:22:36;-1.00;99.90
4090;DHT22;2059;48.538;12.146;2023-12-07T22:27:39;-0.80;99.90
4090;DHT22;2059;48.538;12.146;2023-12-07T22:32:41;-1.00;99.90
4090;DHT22;2059;48.538;12.146;2023-12-07T22:37:43;-1.10;99.90
4090;DHT22;2059;48.538;12.146;2023-12-07T22:42:46;-1.20;99.90
4090;DHT22;2059;48.538;12.146;2023-12-07T22:47:48;-1.30;99.90
4090;DHT22;2059;48.538;12.146;2023-12-07T22:52:50;-1.20;99.90
4090;DHT22;2059;48.538;12.146;2023-12-07T22:57:53;-0.80;99.90
4090;DHT22;2059;48.538;12.146;2023-12-07T23:02:55;-0.80;99.90
4090;DHT22;2059;48.538;12.146;2023-12-07T23:07:57;-1.00;99.90
4090;DHT22;2059;48.538;12.146;2023-12-07T23:13:00;-1.30;99.90
4090;DHT22;2059;48.538;12.146;2023-12-07T23:18:03;-1.30;99.90
4090;DHT22;2059;48.538;12.146;2023-12-07T23:23:05;-1.20;99.90
4090;DHT22;2059;48.538;12.146;2023-12-07T23:28:08;-1.50;99.90
4090;DHT22;2059;48.538;12.146;2023-12-07T23:33:09;-1.20;99.90
4090;DHT22;2059;48.538;12.146;2023-12-07T23:38:11;-1.30;99.90
4090;DHT22;2059;48.538;12.146;2023-12-07T23:43:15;-1.40;99.90
4090;DHT22;2059;48.538;12.146;2023-12-07T23:48:16;-1.10;99.90
4090;DHT22;2059;48.538;12.146;2023-12-07T23:53:18;-1.30;99.90
4090;DHT22;2059;48.538;12.146;2023-12-07T23:58:22;-1.00;99.90
